Main page
METAR-TAF:

METAR-TAF

Airports :

Solenzara Air Base

Solenzara, France

latitude: 41-55N, longitude: 009-24E, elevation: 8 m

Current weather observation

The report was made 16 minutes ago, at 10:30 UTC
Wind 7 kt from the South/Southeast, varying between East/Southeast and South
Temperature 26°C
Humidity 58%
Pressure 1017 hPa
Visibility 10 km or more
no clouds below 1500 m and no cumulonimbus

METAR: LFKS 241030Z AUTO 15007KT 110V190 CAVOK 26/17 Q1017

Time: 12:46 (10:46 UTC)

Forecast

The report was made 2 hours and 46 minutes ago, at 08:00 UTC
Forecast valid from 24 at 09 UTC to 25 at 09 UTC
Wind 8 kt from the Northeast
Visibility 10 km or more
Few clouds at a height of 4000 ft
Temporary
from 24 at 09 UTC to 24 at 11 UTC
Few clouds at a height of 3000 ft, Towering cumulus.
Temporary
from 24 at 11 UTC to 24 at 17 UTC
Few clouds at a height of 4000 ft, Cumulonimbus.
thunderstorm, light rain

TAF: LFKS 240800Z 2409/2509 05008KT 9999 FEW040 TEMPO 2409/2411 FEW030TCU TEMPO 2411/2417 -TSRA FEW040CB

Weather observations and forecasts of more than 4000 airports (METAR and TAF reports).

The available stations are represented by yellow and red dots on the map.

Hover mouse over dot to see the name of the station.

Then click to see weather observations and forecasts.

To change the map : click on the green buttons with a black cross to zoom in, on the green button with a dash to zoom out, or on the green arrows for adjacent maps.


METAR-TAF: